sensor_id;sensor_type;location;lat;lon;timestamp;pressure;altitude;pressure_sealevel;temperature
8227;BMP180;4154;48.810;9.012;2022-11-20T00:01:15;96521.00;;;5.60
8227;BMP180;4154;48.810;9.012;2022-11-20T00:03:41;96513.00;;;5.60
8227;BMP180;4154;48.810;9.012;2022-11-20T00:06:12;96518.00;;;5.70
8227;BMP180;4154;48.810;9.012;2022-11-20T00:08:38;96517.00;;;5.70
8227;BMP180;4154;48.810;9.012;2022-11-20T00:11:08;96519.00;;;5.80
8227;BMP180;4154;48.810;9.012;2022-11-20T00:13:35;96509.00;;;5.80
8227;BMP180;4154;48.810;9.012;2022-11-20T00:16:03;96521.00;;;5.80
8227;BMP180;4154;48.810;9.012;2022-11-20T00:18:32;96516.00;;;5.80
8227;BMP180;4154;48.810;9.012;2022-11-20T00:21:22;96525.00;;;5.90
8227;BMP180;4154;48.810;9.012;2022-11-20T00:23:53;96519.00;;;5.90
8227;BMP180;4154;48.810;9.012;2022-11-20T00:26:21;96511.00;;;5.90
8227;BMP180;4154;48.810;9.012;2022-11-20T00:29:00;96516.00;;;5.90
8227;BMP180;4154;48.810;9.012;2022-11-20T00:31:27;96518.00;;;5.90
8227;BMP180;4154;48.810;9.012;2022-11-20T00:33:53;96512.00;;;5.90
8227;BMP180;4154;48.810;9.012;2022-11-20T00:36:22;96511.00;;;5.90
8227;BMP180;4154;48.810;9.012;2022-11-20T00:38:55;96516.00;;;5.90
8227;BMP180;4154;48.810;9.012;2022-11-20T00:41:22;96514.00;;;5.90
8227;BMP180;4154;48.810;9.012;2022-11-20T00:43:50;96512.00;;;5.90
8227;BMP180;4154;48.810;9.012;2022-11-20T00:46:20;96522.00;;;5.90
8227;BMP180;4154;48.810;9.012;2022-11-20T00:48:47;96520.00;;;5.90
8227;BMP180;4154;48.810;9.012;2022-11-20T00:51:20;96522.00;;;6.00
8227;BMP180;4154;48.810;9.012;2022-11-20T00:54:21;96513.00;;;6.00
8227;BMP180;4154;48.810;9.012;2022-11-20T00:56:47;96516.00;;;6.00
8227;BMP180;4154;48.810;9.012;2022-11-20T00:59:14;96513.00;;;6.00
8227;BMP180;4154;48.810;9.012;2022-11-20T01:01:40;96517.00;;;6.00
8227;BMP180;4154;48.810;9.012;2022-11-20T01:04:06;96521.00;;;6.00
8227;BMP180;4154;48.810;9.012;2022-11-20T01:06:38;96516.00;;;6.00
8227;BMP180;4154;48.810;9.012;2022-11-20T01:09:11;96519.00;;;6.00
8227;BMP180;4154;48.810;9.012;2022-11-20T01:11:41;96515.00;;;6.00
8227;BMP180;4154;48.810;9.012;2022-11-20T01:14:15;96519.00;;;6.00
8227;BMP180;4154;48.810;9.012;2022-11-20T01:16:48;96521.00;;;6.00
8227;BMP180;4154;48.810;9.012;2022-11-20T01:19:18;96521.00;;;6.10
8227;BMP180;4154;48.810;9.012;2022-11-20T01:21:47;96521.00;;;6.00
8227;BMP180;4154;48.810;9.012;2022-11-20T01:24:17;96518.00;;;6.00
8227;BMP180;4154;48.810;9.012;2022-11-20T01:26:46;96525.00;;;6.10
8227;BMP180;4154;48.810;9.012;2022-11-20T01:29:30;96525.00;;;6.10
8227;BMP180;4154;48.810;9.012;2022-11-20T01:31:56;96524.00;;;6.10
8227;BMP180;4154;48.810;9.012;2022-11-20T01:34:23;96523.00;;;6.10
8227;BMP180;4154;48.810;9.012;2022-11-20T01:36:50;96520.00;;;6.10
8227;BMP180;4154;48.810;9.012;2022-11-20T01:39:20;96520.00;;;6.10
8227;BMP180;4154;48.810;9.012;2022-11-20T01:41:47;96514.00;;;6.10
8227;BMP180;4154;48.810;9.012;2022-11-20T01:44:57;96518.00;;;6.00
8227;BMP180;4154;48.810;9.012;2022-11-20T01:47:45;96531.00;;;6.00
8227;BMP180;4154;48.810;9.012;2022-11-20T01:50:24;96520.00;;;5.90
8227;BMP180;4154;48.810;9.012;2022-11-20T01:52:56;96526.00;;;5.90
8227;BMP180;4154;48.810;9.012;2022-11-20T01:55:32;96507.00;;;5.90
8227;BMP180;4154;48.810;9.012;2022-11-20T01:58:01;96518.00;;;5.80
8227;BMP180;4154;48.810;9.012;2022-11-20T02:00:28;96518.00;;;5.80
8227;BMP180;4154;48.810;9.012;2022-11-20T02:02:58;96516.00;;;5.80
8227;BMP180;4154;48.810;9.012;2022-11-20T02:06:04;96521.00;;;5.80
8227;BMP180;4154;48.810;9.012;2022-11-20T02:08:32;96520.00;;;5.80
8227;BMP180;4154;48.810;9.012;2022-11-20T02:10:59;96521.00;;;5.70
8227;BMP180;4154;48.810;9.012;2022-11-20T02:13:25;96524.00;;;5.70
8227;BMP180;4154;48.810;9.012;2022-11-20T02:16:22;96520.00;;;5.60
8227;BMP180;4154;48.810;9.012;2022-11-20T02:18:50;96513.00;;;5.60
8227;BMP180;4154;48.810;9.012;2022-11-20T02:21:39;96523.00;;;5.50
8227;BMP180;4154;48.810;9.012;2022-11-20T02:24:14;96530.00;;;5.50
8227;BMP180;4154;48.810;9.012;2022-11-20T02:26:46;96527.00;;;5.50
8227;BMP180;4154;48.810;9.012;2022-11-20T02:29:16;96525.00;;;5.50
8227;BMP180;4154;48.810;9.012;2022-11-20T02:31:44;96531.00;;;5.50
8227;BMP180;4154;48.810;9.012;2022-11-20T02:34:11;96522.00;;;5.40
8227;BMP180;4154;48.810;9.012;2022-11-20T02:36:40;96541.00;;;5.50
8227;BMP180;4154;48.810;9.012;2022-11-20T02:39:08;96539.00;;;5.50
8227;BMP180;4154;48.810;9.012;2022-11-20T02:41:37;96536.00;;;5.40
8227;BMP180;4154;48.810;9.012;2022-11-20T02:44:04;96538.00;;;5.50
8227;BMP180;4154;48.810;9.012;2022-11-20T02:46:31;96533.00;;;5.50
8227;BMP180;4154;48.810;9.012;2022-11-20T02:48:58;96534.00;;;5.60
8227;BMP180;4154;48.810;9.012;2022-11-20T02:51:25;96544.00;;;5.60
8227;BMP180;4154;48.810;9.012;2022-11-20T02:53:51;96538.00;;;5.60
8227;BMP180;4154;48.810;9.012;2022-11-20T02:56:17;96532.00;;;5.60
8227;BMP180;4154;48.810;9.012;2022-11-20T02:58:44;96533.00;;;5.60
8227;BMP180;4154;48.810;9.012;2022-11-20T03:01:10;96546.00;;;5.60
8227;BMP180;4154;48.810;9.012;2022-11-20T03:03:36;96535.00;;;5.70
8227;BMP180;4154;48.810;9.012;2022-11-20T03:06:02;96531.00;;;5.70
8227;BMP180;4154;48.810;9.012;2022-11-20T03:08:28;96535.00;;;5.70
8227;BMP180;4154;48.810;9.012;2022-11-20T03:10:55;96527.00;;;5.70
8227;BMP180;4154;48.810;9.012;2022-11-20T03:13:21;96526.00;;;5.70
8227;BMP180;4154;48.810;9.012;2022-11-20T03:15:47;96520.00;;;5.70
8227;BMP180;4154;48.810;9.012;2022-11-20T03:18:13;96521.00;;;5.80
8227;BMP180;4154;48.810;9.012;2022-11-20T03:20:40;96515.00;;;5.70
8227;BMP180;4154;48.810;9.012;2022-11-20T03:23:06;96509.00;;;5.70
8227;BMP180;4154;48.810;9.012;2022-11-20T03:25:32;96500.00;;;5.70
8227;BMP180;4154;48.810;9.012;2022-11-20T03:27:59;96507.00;;;5.60
8227;BMP180;4154;48.810;9.012;2022-11-20T03:30:25;96506.00;;;5.60
8227;BMP180;4154;48.810;9.012;2022-11-20T03:32:53;96502.00;;;5.60
8227;BMP180;4154;48.810;9.012;2022-11-20T03:35:20;96506.00;;;5.50
8227;BMP180;4154;48.810;9.012;2022-11-20T03:37:46;96493.00;;;5.50
8227;BMP180;4154;48.810;9.012;2022-11-20T03:40:12;96509.00;;;5.50
8227;BMP180;4154;48.810;9.012;2022-11-20T03:42:38;96510.00;;;5.50
8227;BMP180;4154;48.810;9.012;2022-11-20T03:45:17;96516.00;;;5.50
8227;BMP180;4154;48.810;9.012;2022-11-20T03:47:44;96506.00;;;5.40
8227;BMP180;4154;48.810;9.012;2022-11-20T03:50:13;96489.00;;;5.40
8227;BMP180;4154;48.810;9.012;2022-11-20T03:52:40;96501.00;;;5.30
8227;BMP180;4154;48.810;9.012;2022-11-20T03:55:07;96492.00;;;5.30
8227;BMP180;4154;48.810;9.012;2022-11-20T03:57:33;96507.00;;;5.30
8227;BMP180;4154;48.810;9.012;2022-11-20T03:59:59;96500.00;;;5.30
8227;BMP180;4154;48.810;9.012;2022-11-20T04:02:26;96506.00;;;5.30
8227;BMP180;4154;48.810;9.012;2022-11-20T04:04:52;96496.00;;;5.30
8227;BMP180;4154;48.810;9.012;2022-11-20T04:07:18;96502.00;;;5.30
8227;BMP180;4154;48.810;9.012;2022-11-20T04:09:44;96508.00;;;5.30
8227;BMP180;4154;48.810;9.012;2022-11-20T04:12:10;96503.00;;;5.30
8227;BMP180;4154;48.810;9.012;2022-11-20T04:14:37;96500.00;;;5.30
8227;BMP180;4154;48.810;9.012;2022-11-20T04:17:03;96497.00;;;5.30
8227;BMP180;4154;48.810;9.012;2022-11-20T04:19:30;96496.00;;;5.30
8227;BMP180;4154;48.810;9.012;2022-11-20T04:21:56;96487.00;;;5.30
8227;BMP180;4154;48.810;9.012;2022-11-20T04:24:22;96500.00;;;5.40
8227;BMP180;4154;48.810;9.012;2022-11-20T04:26:48;96499.00;;;5.30
8227;BMP180;4154;48.810;9.012;2022-11-20T04:29:14;96489.00;;;5.30
8227;BMP180;4154;48.810;9.012;2022-11-20T04:31:41;96492.00;;;5.30
8227;BMP180;4154;48.810;9.012;2022-11-20T04:34:11;96490.00;;;5.30
8227;BMP180;4154;48.810;9.012;2022-11-20T04:36:37;96485.00;;;5.30
8227;BMP180;4154;48.810;9.012;2022-11-20T04:39:06;96485.00;;;5.40
8227;BMP180;4154;48.810;9.012;2022-11-20T04:41:35;96497.00;;;5.30
8227;BMP180;4154;48.810;9.012;2022-11-20T04:44:04;96494.00;;;5.30
8227;BMP180;4154;48.810;9.012;2022-11-20T04:46:37;96496.00;;;5.30
8227;BMP180;4154;48.810;9.012;2022-11-20T04:49:04;96492.00;;;5.40
8227;BMP180;4154;48.810;9.012;2022-11-20T04:51:30;96501.00;;;5.40
8227;BMP180;4154;48.810;9.012;2022-11-20T04:54:02;96495.00;;;5.40
8227;BMP180;4154;48.810;9.012;2022-11-20T04:56:29;96483.00;;;5.40
8227;BMP180;4154;48.810;9.012;2022-11-20T04:58:55;96486.00;;;5.50
8227;BMP180;4154;48.810;9.012;2022-11-20T05:01:23;96488.00;;;5.40
8227;BMP180;4154;48.810;9.012;2022-11-20T05:03:50;96488.00;;;5.50
8227;BMP180;4154;48.810;9.012;2022-11-20T05:06:19;96501.00;;;5.50
8227;BMP180;4154;48.810;9.012;2022-11-20T05:08:45;96490.00;;;5.50
8227;BMP180;4154;48.810;9.012;2022-11-20T05:11:18;96497.00;;;5.50
8227;BMP180;4154;48.810;9.012;2022-11-20T05:13:45;96500.00;;;5.50
8227;BMP180;4154;48.810;9.012;2022-11-20T05:16:17;96493.00;;;5.40
8227;BMP180;4154;48.810;9.012;2022-11-20T05:18:43;96495.00;;;5.50
8227;BMP180;4154;48.810;9.012;2022-11-20T05:21:11;96495.00;;;5.50
8227;BMP180;4154;48.810;9.012;2022-11-20T05:23:38;96495.00;;;5.50
8227;BMP180;4154;48.810;9.012;2022-11-20T05:26:06;96493.00;;;5.50
8227;BMP180;4154;48.810;9.012;2022-11-20T05:28:33;96496.00;;;5.50
8227;BMP180;4154;48.810;9.012;2022-11-20T05:31:18;96491.00;;;5.50
8227;BMP180;4154;48.810;9.012;2022-11-20T05:33:45;96489.00;;;5.50
8227;BMP180;4154;48.810;9.012;2022-11-20T05:36:13;96486.00;;;5.50
8227;BMP180;4154;48.810;9.012;2022-11-20T05:38:40;96485.00;;;5.60
8227;BMP180;4154;48.810;9.012;2022-11-20T05:41:19;96498.00;;;5.60
8227;BMP180;4154;48.810;9.012;2022-11-20T05:43:47;96487.00;;;5.60
8227;BMP180;4154;48.810;9.012;2022-11-20T05:46:16;96492.00;;;5.60
8227;BMP180;4154;48.810;9.012;2022-11-20T05:48:45;96496.00;;;5.60
8227;BMP180;4154;48.810;9.012;2022-11-20T05:51:15;96484.00;;;5.70
8227;BMP180;4154;48.810;9.012;2022-11-20T05:53:51;96485.00;;;5.60
8227;BMP180;4154;48.810;9.012;2022-11-20T05:56:19;96487.00;;;5.60
8227;BMP180;4154;48.810;9.012;2022-11-20T05:58:46;96483.00;;;5.60
8227;BMP180;4154;48.810;9.012;2022-11-20T06:01:24;96490.00;;;5.60
8227;BMP180;4154;48.810;9.012;2022-11-20T06:03:52;96496.00;;;5.70
8227;BMP180;4154;48.810;9.012;2022-11-20T06:06:19;96491.00;;;5.70
8227;BMP180;4154;48.810;9.012;2022-11-20T06:08:45;96494.00;;;5.70
8227;BMP180;4154;48.810;9.012;2022-11-20T06:11:14;96477.00;;;5.70
8227;BMP180;4154;48.810;9.012;2022-11-20T06:13:40;96486.00;;;5.70
8227;BMP180;4154;48.810;9.012;2022-11-20T06:16:07;96485.00;;;5.70
8227;BMP180;4154;48.810;9.012;2022-11-20T06:18:33;96476.00;;;5.70
8227;BMP180;4154;48.810;9.012;2022-11-20T06:21:05;96479.00;;;5.80
8227;BMP180;4154;48.810;9.012;2022-11-20T06:27:13;96478.00;;;5.80
8227;BMP180;4154;48.810;9.012;2022-11-20T06:29:39;96471.00;;;5.80
8227;BMP180;4154;48.810;9.012;2022-11-20T06:32:05;96470.00;;;5.80
8227;BMP180;4154;48.810;9.012;2022-11-20T06:34:31;96470.00;;;5.80
8227;BMP180;4154;48.810;9.012;2022-11-20T06:36:57;96476.00;;;5.80
8227;BMP180;4154;48.810;9.012;2022-11-20T06:39:23;96473.00;;;5.80
8227;BMP180;4154;48.810;9.012;2022-11-20T06:41:48;96472.00;;;5.80
8227;BMP180;4154;48.810;9.012;2022-11-20T06:44:14;96478.00;;;5.90
8227;BMP180;4154;48.810;9.012;2022-11-20T06:46:40;96484.00;;;5.90
8227;BMP180;4154;48.810;9.012;2022-11-20T06:49:06;96480.00;;;5.90
8227;BMP180;4154;48.810;9.012;2022-11-20T06:51:33;96477.00;;;5.90
8227;BMP180;4154;48.810;9.012;2022-11-20T06:53:59;96488.00;;;5.90
8227;BMP180;4154;48.810;9.012;2022-11-20T06:56:26;96495.00;;;5.90
8227;BMP180;4154;48.810;9.012;2022-11-20T06:58:53;96493.00;;;6.00
8227;BMP180;4154;48.810;9.012;2022-11-20T07:01:19;96491.00;;;6.00
8227;BMP180;4154;48.810;9.012;2022-11-20T07:03:48;96491.00;;;6.00
8227;BMP180;4154;48.810;9.012;2022-11-20T07:06:14;96491.00;;;6.00
8227;BMP180;4154;48.810;9.012;2022-11-20T07:08:40;96508.00;;;6.00
8227;BMP180;4154;48.810;9.012;2022-11-20T07:11:07;96506.00;;;6.00
8227;BMP180;4154;48.810;9.012;2022-11-20T07:13:34;96491.00;;;6.10
8227;BMP180;4154;48.810;9.012;2022-11-20T07:16:03;96494.00;;;6.10
8227;BMP180;4154;48.810;9.012;2022-11-20T07:18:29;96497.00;;;6.10
8227;BMP180;4154;48.810;9.012;2022-11-20T07:20:56;96502.00;;;6.10
8227;BMP180;4154;48.810;9.012;2022-11-20T07:23:22;96499.00;;;6.10
8227;BMP180;4154;48.810;9.012;2022-11-20T07:25:48;96500.00;;;6.10
8227;BMP180;4154;48.810;9.012;2022-11-20T07:28:14;96508.00;;;6.10
8227;BMP180;4154;48.810;9.012;2022-11-20T07:30:40;96507.00;;;6.20
8227;BMP180;4154;48.810;9.012;2022-11-20T07:33:07;96503.00;;;6.20
8227;BMP180;4154;48.810;9.012;2022-11-20T07:35:33;96507.00;;;6.20
8227;BMP180;4154;48.810;9.012;2022-11-20T07:37:59;96503.00;;;6.20
8227;BMP180;4154;48.810;9.012;2022-11-20T07:40:25;96512.00;;;6.20
8227;BMP180;4154;48.810;9.012;2022-11-20T07:42:54;96511.00;;;6.30
8227;BMP180;4154;48.810;9.012;2022-11-20T07:45:22;96516.00;;;6.40
8227;BMP180;4154;48.810;9.012;2022-11-20T07:47:49;96512.00;;;6.40
8227;BMP180;4154;48.810;9.012;2022-11-20T07:50:16;96506.00;;;6.40
8227;BMP180;4154;48.810;9.012;2022-11-20T07:52:42;96508.00;;;6.40
8227;BMP180;4154;48.810;9.012;2022-11-20T07:55:09;96510.00;;;6.50
8227;BMP180;4154;48.810;9.012;2022-11-20T07:57:36;96527.00;;;6.50
8227;BMP180;4154;48.810;9.012;2022-11-20T08:00:04;96520.00;;;6.50
8227;BMP180;4154;48.810;9.012;2022-11-20T08:02:31;96529.00;;;6.60
8227;BMP180;4154;48.810;9.012;2022-11-20T08:04:57;96530.00;;;6.60
8227;BMP180;4154;48.810;9.012;2022-11-20T08:07:22;96539.00;;;6.70
8227;BMP180;4154;48.810;9.012;2022-11-20T08:09:48;96528.00;;;6.60
8227;BMP180;4154;48.810;9.012;2022-11-20T08:12:21;96535.00;;;6.70
8227;BMP180;4154;48.810;9.012;2022-11-20T08:15:07;96533.00;;;6.60
8227;BMP180;4154;48.810;9.012;2022-11-20T08:17:33;96549.00;;;6.60
8227;BMP180;4154;48.810;9.012;2022-11-20T08:19:59;96541.00;;;6.60
8227;BMP180;4154;48.810;9.012;2022-11-20T08:22:25;96536.00;;;6.70
8227;BMP180;4154;48.810;9.012;2022-11-20T08:24:52;96536.00;;;6.70
8227;BMP180;4154;48.810;9.012;2022-11-20T08:27:18;96538.00;;;6.80
8227;BMP180;4154;48.810;9.012;2022-11-20T08:29:44;96543.00;;;6.80
8227;BMP180;4154;48.810;9.012;2022-11-20T08:32:10;96529.00;;;6.90
8227;BMP180;4154;48.810;9.012;2022-11-20T08:34:36;96542.00;;;7.00
8227;BMP180;4154;48.810;9.012;2022-11-20T08:37:03;96540.00;;;6.90
8227;BMP180;4154;48.810;9.012;2022-11-20T08:39:29;96537.00;;;7.00
8227;BMP180;4154;48.810;9.012;2022-11-20T08:41:55;96542.00;;;7.00
8227;BMP180;4154;48.810;9.012;2022-11-20T08:44:21;96546.00;;;7.00
8227;BMP180;4154;48.810;9.012;2022-11-20T08:46:47;96543.00;;;7.00
8227;BMP180;4154;48.810;9.012;2022-11-20T08:49:14;96541.00;;;7.10
8227;BMP180;4154;48.810;9.012;2022-11-20T08:51:41;96550.00;;;7.10
8227;BMP180;4154;48.810;9.012;2022-11-20T08:54:07;96550.00;;;7.10
8227;BMP180;4154;48.810;9.012;2022-11-20T08:56:34;96554.00;;;7.10
8227;BMP180;4154;48.810;9.012;2022-11-20T08:59:01;96557.00;;;7.10
8227;BMP180;4154;48.810;9.012;2022-11-20T09:01:29;96553.00;;;7.20
8227;BMP180;4154;48.810;9.012;2022-11-20T09:03:56;96564.00;;;7.20
8227;BMP180;4154;48.810;9.012;2022-11-20T09:06:25;96560.00;;;7.20
8227;BMP180;4154;48.810;9.012;2022-11-20T09:08:55;96560.00;;;7.20
8227;BMP180;4154;48.810;9.012;2022-11-20T09:11:23;96566.00;;;7.20
8227;BMP180;4154;48.810;9.012;2022-11-20T09:13:51;96560.00;;;7.30
8227;BMP180;4154;48.810;9.012;2022-11-20T09:16:17;96566.00;;;7.30
8227;BMP180;4154;48.810;9.012;2022-11-20T09:18:44;96571.00;;;7.30
8227;BMP180;4154;48.810;9.012;2022-11-20T09:21:13;96574.00;;;7.30
8227;BMP180;4154;48.810;9.012;2022-11-20T09:23:40;96575.00;;;7.30
8227;BMP180;4154;48.810;9.012;2022-11-20T09:26:10;96573.00;;;7.30
8227;BMP180;4154;48.810;9.012;2022-11-20T09:29:11;96573.00;;;7.20
8227;BMP180;4154;48.810;9.012;2022-11-20T09:31:59;96577.00;;;7.20
8227;BMP180;4154;48.810;9.012;2022-11-20T09:34:25;96588.00;;;7.20
8227;BMP180;4154;48.810;9.012;2022-11-20T09:36:51;96594.00;;;7.20
8227;BMP180;4154;48.810;9.012;2022-11-20T09:39:17;96588.00;;;7.20
8227;BMP180;4154;48.810;9.012;2022-11-20T09:47:49;96587.00;;;7.20
8227;BMP180;4154;48.810;9.012;2022-11-20T09:56:04;96595.00;;;7.20
8227;BMP180;4154;48.810;9.012;2022-11-20T09:58:40;96589.00;;;7.20
8227;BMP180;4154;48.810;9.012;2022-11-20T10:01:19;96592.00;;;7.10
8227;BMP180;4154;48.810;9.012;2022-11-20T10:04:10;96591.00;;;7.10
8227;BMP180;4154;48.810;9.012;2022-11-20T10:09:35;96605.00;;;7.10
8227;BMP180;4154;48.810;9.012;2022-11-20T10:17:18;96611.00;;;7.20
8227;BMP180;4154;48.810;9.012;2022-11-20T10:30:57;96616.00;;;6.90
8227;BMP180;4154;48.810;9.012;2022-11-20T10:33:39;96615.00;;;6.90
8227;BMP180;4154;48.810;9.012;2022-11-20T10:36:29;96628.00;;;6.90
8227;BMP180;4154;48.810;9.012;2022-11-20T10:41:32;96604.00;;;6.90
8227;BMP180;4154;48.810;9.012;2022-11-20T10:44:16;96608.00;;;6.90
8227;BMP180;4154;48.810;9.012;2022-11-20T10:47:05;96602.00;;;6.80
8227;BMP180;4154;48.810;9.012;2022-11-20T10:49:33;96605.00;;;6.80
8227;BMP180;4154;48.810;9.012;2022-11-20T10:52:45;96598.00;;;6.90
8227;BMP180;4154;48.810;9.012;2022-11-20T10:58:04;96614.00;;;7.00
8227;BMP180;4154;48.810;9.012;2022-11-20T11:00:33;96606.00;;;6.90
8227;BMP180;4154;48.810;9.012;2022-11-20T11:03:00;96607.00;;;7.00
8227;BMP180;4154;48.810;9.012;2022-11-20T11:05:43;96604.00;;;7.00
8227;BMP180;4154;48.810;9.012;2022-11-20T11:08:18;96604.00;;;7.00
8227;BMP180;4154;48.810;9.012;2022-11-20T11:11:00;96595.00;;;7.10
8227;BMP180;4154;48.810;9.012;2022-11-20T11:13:34;96588.00;;;7.10
8227;BMP180;4154;48.810;9.012;2022-11-20T11:16:00;96586.00;;;7.10
8227;BMP180;4154;48.810;9.012;2022-11-20T11:18:34;96577.00;;;7.10
8227;BMP180;4154;48.810;9.012;2022-11-20T11:21:04;96571.00;;;7.20
8227;BMP180;4154;48.810;9.012;2022-11-20T11:23:39;96561.00;;;7.20
8227;BMP180;4154;48.810;9.012;2022-11-20T11:26:26;96554.00;;;7.20
8227;BMP180;4154;48.810;9.012;2022-11-20T11:29:02;96553.00;;;7.20
8227;BMP180;4154;48.810;9.012;2022-11-20T11:31:34;96552.00;;;7.30
8227;BMP180;4154;48.810;9.012;2022-11-20T11:34:05;96544.00;;;7.30
8227;BMP180;4154;48.810;9.012;2022-11-20T11:36:34;96542.00;;;7.30
8227;BMP180;4154;48.810;9.012;2022-11-20T11:39:03;96544.00;;;7.40
8227;BMP180;4154;48.810;9.012;2022-11-20T11:41:33;96539.00;;;7.40
8227;BMP180;4154;48.810;9.012;2022-11-20T11:44:17;96531.00;;;7.40
8227;BMP180;4154;48.810;9.012;2022-11-20T11:47:04;96530.00;;;7.40
8227;BMP180;4154;48.810;9.012;2022-11-20T11:49:32;96525.00;;;7.40
8227;BMP180;4154;48.810;9.012;2022-11-20T11:54:38;96512.00;;;7.40
8227;BMP180;4154;48.810;9.012;2022-11-20T12:00:16;96521.00;;;7.40
8227;BMP180;4154;48.810;9.012;2022-11-20T12:05:25;96512.00;;;7.50
8227;BMP180;4154;48.810;9.012;2022-11-20T12:10:43;96503.00;;;7.50
8227;BMP180;4154;48.810;9.012;2022-11-20T12:16:43;96511.00;;;7.50
8227;BMP180;4154;48.810;9.012;2022-11-20T12:19:14;96492.00;;;7.50
8227;BMP180;4154;48.810;9.012;2022-11-20T12:27:55;96505.00;;;7.50
8227;BMP180;4154;48.810;9.012;2022-11-20T12:30:25;96497.00;;;7.50
8227;BMP180;4154;48.810;9.012;2022-11-20T12:42:05;96493.00;;;7.60
8227;BMP180;4154;48.810;9.012;2022-11-20T12:45:25;96494.00;;;7.70
8227;BMP180;4154;48.810;9.012;2022-11-20T12:51:18;96486.00;;;7.70
8227;BMP180;4154;48.810;9.012;2022-11-20T12:57:18;96479.00;;;7.70
8227;BMP180;4154;48.810;9.012;2022-11-20T12:59:54;96474.00;;;7.80
8227;BMP180;4154;48.810;9.012;2022-11-20T13:03:06;96499.00;;;7.80
8227;BMP180;4154;48.810;9.012;2022-11-20T13:06:12;96518.00;;;7.80
8227;BMP180;4154;48.810;9.012;2022-11-20T13:08:42;96497.00;;;7.80
8227;BMP180;4154;48.810;9.012;2022-11-20T13:11:19;96486.00;;;7.80
8227;BMP180;4154;48.810;9.012;2022-11-20T13:17:36;96466.00;;;7.80
8227;BMP180;4154;48.810;9.012;2022-11-20T13:20:06;96478.00;;;7.80
8227;BMP180;4154;48.810;9.012;2022-11-20T13:22:52;96484.00;;;7.90
8227;BMP180;4154;48.810;9.012;2022-11-20T13:25:38;96478.00;;;7.90
8227;BMP180;4154;48.810;9.012;2022-11-20T13:28:29;96469.00;;;7.90
8227;BMP180;4154;48.810;9.012;2022-11-20T13:30:57;96472.00;;;8.00
8227;BMP180;4154;48.810;9.012;2022-11-20T13:33:33;96466.00;;;8.00
8227;BMP180;4154;48.810;9.012;2022-11-20T13:36:07;96449.00;;;8.00
8227;BMP180;4154;48.810;9.012;2022-11-20T13:38:56;96441.00;;;7.90
8227;BMP180;4154;48.810;9.012;2022-11-20T13:41:36;96454.00;;;7.90
8227;BMP180;4154;48.810;9.012;2022-11-20T13:44:23;96470.00;;;7.90
8227;BMP180;4154;48.810;9.012;2022-11-20T13:46:50;96464.00;;;7.80
8227;BMP180;4154;48.810;9.012;2022-11-20T13:49:34;96461.00;;;7.80
8227;BMP180;4154;48.810;9.012;2022-11-20T13:55:18;96473.00;;;7.70
8227;BMP180;4154;48.810;9.012;2022-11-20T13:58:20;96462.00;;;7.70
8227;BMP180;4154;48.810;9.012;2022-11-20T14:01:10;96458.00;;;7.60
8227;BMP180;4154;48.810;9.012;2022-11-20T14:03:37;96460.00;;;7.70
8227;BMP180;4154;48.810;9.012;2022-11-20T14:06:28;96457.00;;;7.70
8227;BMP180;4154;48.810;9.012;2022-11-20T14:08:55;96464.00;;;7.70
8227;BMP180;4154;48.810;9.012;2022-11-20T14:11:28;96459.00;;;7.70
8227;BMP180;4154;48.810;9.012;2022-11-20T14:14:10;96467.00;;;7.70
8227;BMP180;4154;48.810;9.012;2022-11-20T14:16:39;96458.00;;;7.60
8227;BMP180;4154;48.810;9.012;2022-11-20T14:21:48;96463.00;;;7.60
8227;BMP180;4154;48.810;9.012;2022-11-20T14:24:20;96454.00;;;7.60
8227;BMP180;4154;48.810;9.012;2022-11-20T14:26:47;96459.00;;;7.60
8227;BMP180;4154;48.810;9.012;2022-11-20T14:29:27;96459.00;;;7.60
8227;BMP180;4154;48.810;9.012;2022-11-20T14:31:55;96458.00;;;7.60
8227;BMP180;4154;48.810;9.012;2022-11-20T14:34:29;96448.00;;;7.60
8227;BMP180;4154;48.810;9.012;2022-11-20T14:37:02;96441.00;;;7.70
8227;BMP180;4154;48.810;9.012;2022-11-20T14:39:41;96446.00;;;7.70
8227;BMP180;4154;48.810;9.012;2022-11-20T14:42:25;96445.00;;;7.70
8227;BMP180;4154;48.810;9.012;2022-11-20T14:44:55;96442.00;;;7.60
8227;BMP180;4154;48.810;9.012;2022-11-20T14:47:25;96436.00;;;7.60
8227;BMP180;4154;48.810;9.012;2022-11-20T14:49:53;96441.00;;;7.50
8227;BMP180;4154;48.810;9.012;2022-11-20T14:52:27;96434.00;;;7.60
8227;BMP180;4154;48.810;9.012;2022-11-20T14:54:58;96427.00;;;7.60
8227;BMP180;4154;48.810;9.012;2022-11-20T14:57:36;96417.00;;;7.60
8227;BMP180;4154;48.810;9.012;2022-11-20T15:02:46;96416.00;;;7.50
8227;BMP180;4154;48.810;9.012;2022-11-20T15:05:13;96412.00;;;7.50
8227;BMP180;4154;48.810;9.012;2022-11-20T15:07:47;96413.00;;;7.40
8227;BMP180;4154;48.810;9.012;2022-11-20T16:31:42;96359.00;;;6.90
8227;BMP180;4154;48.810;9.012;2022-11-20T16:45:12;96351.00;;;6.90
8227;BMP180;4154;48.810;9.012;2022-11-20T18:33:04;96255.00;;;6.90
8227;BMP180;4154;48.810;9.012;2022-11-20T19:05:08;96244.00;;;6.70
8227;BMP180;4154;48.810;9.012;2022-11-20T19:16:18;96230.00;;;6.50
8227;BMP180;4154;48.810;9.012;2022-11-20T19:31:52;96208.00;;;6.40
8227;BMP180;4154;48.810;9.012;2022-11-20T19:34:47;96192.00;;;6.30
8227;BMP180;4154;48.810;9.012;2022-11-20T19:41:01;96187.00;;;6.20
8227;BMP180;4154;48.810;9.012;2022-11-20T20:03:22;96178.00;;;6.00
8227;BMP180;4154;48.810;9.012;2022-11-20T20:14:18;96170.00;;;5.90
8227;BMP180;4154;48.810;9.012;2022-11-20T20:24:56;96181.00;;;5.80
8227;BMP180;4154;48.810;9.012;2022-11-20T20:27:50;96184.00;;;5.70
8227;BMP180;4154;48.810;9.012;2022-11-20T20:41:59;96197.00;;;5.80
8227;BMP180;4154;48.810;9.012;2022-11-20T20:44:58;96201.00;;;5.70
8227;BMP180;4154;48.810;9.012;2022-11-20T20:48:06;96203.00;;;5.80
8227;BMP180;4154;48.810;9.012;2022-11-20T20:50:41;96220.00;;;5.70
8227;BMP180;4154;48.810;9.012;2022-11-20T20:53:30;96209.00;;;5.70
8227;BMP180;4154;48.810;9.012;2022-11-20T20:56:35;96215.00;;;5.70
8227;BMP180;4154;48.810;9.012;2022-11-20T20:59:04;96218.00;;;5.70
8227;BMP180;4154;48.810;9.012;2022-11-20T21:01:46;96219.00;;;5.70
8227;BMP180;4154;48.810;9.012;2022-11-20T21:07:38;96234.00;;;5.60
8227;BMP180;4154;48.810;9.012;2022-11-20T21:10:47;96234.00;;;5.60
8227;BMP180;4154;48.810;9.012;2022-11-20T21:13:33;96233.00;;;5.60
8227;BMP180;4154;48.810;9.012;2022-11-20T21:16:55;96219.00;;;5.60
8227;BMP180;4154;48.810;9.012;2022-11-20T21:38:41;96219.00;;;5.50
8227;BMP180;4154;48.810;9.012;2022-11-20T21:42:20;96230.00;;;5.40
